Latest Weather Observations for Yanco

IDN60801

Issued at 2:03 pm EST Saturday 4 July 2015 (issued every 30 minutes, with the page automatically refreshed every 10 minutes)

About weather observations | Map of weather stations | Latest weather observations for NSW | Other Formats
Station Details ID: 074037 Name: YANCO AGRICULTURAL INSTITUTE Lat: -34.62 Lon: 146.43 Height: 164.0 m
Data from the previous 72 hours. | See also: Recent months at Yanco
Date/Time
EST
Temp
°C
App
Temp
°C
Dew
Point
Rel
Hum
%
Delta-T
°C
Wind Press
QNH
hPa
Press
MSL
hPa
Rain
since 9 am
mm
Dir
 
Spd
km/h
Gust
km/h
Spd
kts
Gust
kts
04/02:00pm 11.5 8.4 3.8 59 3.5 SSW 9 11 5 6 - - 0.0
04/01:30pm 10.8 8.0 2.9 58 3.5 SW 7 15 4 8 - - 0.0
04/01:00pm 10.2 7.2 2.3 58 3.4 WSW 7 11 4 6 - - 0.0
04/12:30pm 10.6 8.0 3.4 61 3.2 WNW 6 11 3 6 - - 0.0
04/12:00pm 9.7 6.7 2.3 60 3.2 W 7 11 4 6 - - 0.0
04/11:30am 9.2 6.5 3.6 68 2.5 WNW 7 11 4 6 - - 0.0
04/11:00am 8.3 5.7 3.4 71 2.1 WNW 6 9 3 5 - - 0.0
04/10:30am 7.2 5.0 3.3 76 1.7 N 4 7 2 4 - - 0.0
04/10:00am 5.9 3.7 3.1 82 1.2 N 4 4 2 2 - - 0.0
04/09:30am 4.7 2.4 2.9 88 0.7 N 4 6 2 3 - - 0.0
04/09:00am 3.2 0.8 2.0 92 0.5 N 4 6 2 3 - - 0.2
04/08:30am 3.1 0.3 1.9 92 0.5 N 6 6 3 3 - - 0.2
04/08:00am 2.5 -0.4 1.5 93 0.4 N 6 6 3 3 - - 0.2
04/07:30am 2.3 -0.6 1.7 96 0.2 N 6 6 3 3 - - 0.2
04/07:00am 2.1 -0.4 1.4 95 0.3 N 4 4 2 2 - - 0.2
04/06:30am 2.3 -0.2 1.6 95 0.3 N 4 6 2 3 - - 0.2
04/06:00am 2.5 0.0 1.6 94 0.4 N 4 6 2 3 - - 0.2
04/05:30am 2.8 0.0 1.8 93 0.4 N 6 6 3 3 - - 0.2
04/05:00am 2.6 -0.3 1.6 93 0.4 N 6 7 3 4 - - 0.2
04/04:30am 3.0 0.5 1.7 91 0.5 N 4 4 2 2 - - 0.2
04/04:00am 3.2 0.7 1.3 87 0.7 N 4 4 2 2 - - 0.2
04/03:30am 4.0 1.2 1.9 86 0.8 N 6 6 3 3 - - 0.2
04/03:00am 3.7 0.8 1.7 87 0.8 N 6 7 3 4 - - 0.2
04/02:30am 4.2 2.5 1.7 84 1.0 CALM 0 0 0 0 - - 0.2
04/02:00am 4.4 2.7 1.8 83 1.0 CALM 0 0 0 0 - - 0.2
04/01:30am 4.9 3.2 2.1 82 1.1 CALM 0 0 0 0 - - 0.2
04/01:00am 4.7 3.0 2.1 83 1.1 CALM 0 0 0 0 - - 0.2
04/12:30am 4.8 3.2 2.2 83 1.1 CALM 0 0 0 0 - - 0.2
04/12:00am 4.5 2.9 2.2 85 0.9 CALM 0 2 0 1 - - 0.2
 
Date/Time
EST
Temp
°C
App
Temp
°C
Dew
Point
Rel
Hum
%
Delta-T
°C
Wind Press
QNH
hPa
Press
MSL
hPa
Rain
since 9 am
mm
Dir
 
Spd
km/h
Gust
km/h
Spd
kts
Gust
kts
03/11:30pm 5.1 2.3 2.3 82 1.1 NNE 6 6 3 3 - - 0.2
03/11:00pm 3.8 1.5 2.6 92 0.5 NE 4 6 2 3 - - 0.2
03/10:30pm 4.1 2.1 2.3 88 0.7 NE 2 4 1 2 - - 0.2
03/10:00pm 4.9 2.9 2.1 82 1.1 NE 2 4 1 2 - - 0.2
03/09:30pm 4.5 2.1 2.4 86 0.9 SE 4 6 2 3 - - 0.2
03/09:00pm 5.0 3.2 1.5 78 1.4 CALM 0 0 0 0 - - 0.2
03/08:30pm 6.0 3.5 1.5 73 1.8 SE 4 7 2 4 - - 0.2
03/08:00pm 6.8 4.7 1.7 70 2.1 SW 2 6 1 3 - - 0.2
03/07:30pm 6.7 4.6 1.6 70 2.1 SW 2 4 1 2 - - 0.2
03/07:00pm 6.5 4.0 1.8 72 1.9 SW 4 6 2 3 - - 0.2
03/06:30pm 6.6 3.8 1.9 72 1.9 SW 6 6 3 3 - - 0.2
03/06:00pm 6.6 4.2 1.9 72 1.9 SW 4 6 2 3 - - 0.2
03/05:30pm 7.0 4.0 1.9 70 2.1 SW 7 11 4 6 - - 0.2
03/05:00pm 7.9 4.6 2.6 69 2.2 SW 9 11 5 6 - - 0.2
03/04:30pm 9.4 6.6 2.9 64 2.8 SW 7 11 4 6 - - 0.2
03/04:00pm 9.6 6.0 2.7 62 3.0 WSW 11 15 6 8 - - 0.2
03/03:30pm 10.5 6.8 2.1 56 3.6 SW 11 17 6 9 - - 0.2
03/03:00pm 10.4 6.2 1.5 54 3.8 SW 13 20 7 11 - - 0.2
03/02:30pm 10.6 6.4 1.4 53 3.9 WSW 13 19 7 10 - - 0.2
03/02:00pm 10.7 7.8 1.5 53 3.9 WSW 6 11 3 6 - - 0.2
03/01:30pm 10.8 8.2 1.1 51 4.1 W 4 7 2 4 - - 0.2
03/01:00pm 10.7 8.2 1.3 52 4.0 SW 4 6 2 3 - - 0.2
03/12:30pm 10.5 9.0 2.8 59 3.3 CALM 0 4 0 2 - - 0.2
03/12:00pm 9.7 8.0 3.9 67 2.6 ESE 2 6 1 3 - - 0.2
03/11:30am 9.8 8.3 2.9 62 3.0 CALM 0 2 0 1 - - 0.2
03/11:00am 8.2 6.4 3.7 73 2.0 SW 2 6 1 3 - - 0.2
03/10:30am 6.9 5.2 3.9 81 1.3 W 2 4 1 2 - - 0.2
03/10:00am 5.6 3.8 3.4 86 0.9 WNW 2 4 1 2 - - 0.2
03/09:30am 5.1 3.6 3.0 86 0.9 CALM 0 0 0 0 - - 0.2
03/09:00am 3.8 2.2 2.5 91 0.5 CALM 0 0 0 0 - - 0.2
03/08:30am 1.9 -0.2 1.6 98 0.1 NW 2 4 1 2 - - 0.2
03/08:00am 0.5 -2.2 0.4 99 0.0 NW 4 4 2 2 - - 0.0
03/07:30am 0.5 -1.4 0.4 99 0.0 CALM 0 0 0 0 - - 0.0
03/07:00am 0.9 -1.0 0.6 98 0.1 CALM 0 0 0 0 - - 0.0
03/06:30am 0.6 -2.2 -0.1 95 0.3 S 4 6 2 3 - - 0.0
03/06:00am 1.5 -1.2 0.6 94 0.3 S 4 6 2 3 - - 0.0
03/05:30am 1.6 -1.4 1.0 96 0.2 S 6 7 3 4 - - 0.0
03/05:00am 1.4 -2.2 0.8 96 0.2 S 9 9 5 5 - - 0.0
03/04:30am 1.5 -1.7 0.9 96 0.2 S 7 9 4 5 - - 0.0
03/04:00am 1.5 -1.5 0.8 95 0.3 SW 6 7 3 4 - - 0.0
03/03:30am 1.8 -1.4 0.9 94 0.3 SW 7 9 4 5 - - 0.0
03/03:00am 1.2 -1.6 -0.1 91 0.5 SW 4 6 2 3 - - 0.0
03/02:30am 3.0 -0.1 1.2 88 0.7 S 7 9 4 5 - - 0.0
03/02:00am 3.3 -0.2 1.3 87 0.8 S 9 11 5 6 - - 0.0
03/01:30am 3.4 0.3 1.4 87 0.8 SSW 7 9 4 5 - - 0.0
03/01:00am 3.9 1.0 1.3 83 1.0 SSW 6 7 3 4 - - 0.0
03/12:30am 3.7 0.1 0.8 81 1.1 SW 9 13 5 7 - - 0.0
03/12:00am 4.4 1.3 1.3 80 1.2 S 7 13 4 7 - - 0.0
 
Date/Time
EST
Temp
°C
App
Temp
°C
Dew
Point
Rel
Hum
%
Delta-T
°C
Wind Press
QNH
hPa
Press
MSL
hPa
Rain
since 9 am
mm
Dir
 
Spd
km/h
Gust
km/h
Spd
kts
Gust
kts
02/11:30pm 4.7 0.5 1.4 79 1.3 S 13 15 7 8 - - 0.0
02/11:00pm 4.7 0.4 1.2 78 1.4 SSW 13 17 7 9 - - 0.0
02/10:30pm 5.6 1.7 1.2 73 1.8 S 11 15 6 8 - - 0.0
02/10:00pm 4.8 2.2 0.9 76 1.5 SW 4 6 2 3 - - 0.0
02/09:30pm 5.3 1.4 0.9 73 1.7 SSW 11 17 6 9 - - 0.0
02/09:00pm 5.7 1.4 0.9 71 1.9 SW 13 17 7 9 - - 0.0
02/08:30pm 5.6 1.7 1.2 73 1.8 SW 11 15 6 8 - - 0.0
02/08:00pm 6.6 2.3 1.1 68 2.2 SW 13 17 7 9 - - 0.0
02/07:30pm 6.6 2.8 1.7 71 2.0 SSW 11 19 6 10 - - 0.0
02/07:00pm 7.0 3.3 2.1 71 2.0 SW 11 15 6 8 - - 0.0
02/06:30pm 7.7 3.7 2.8 71 2.1 SW 13 17 7 9 - - 0.0
02/06:00pm 8.7 4.0 2.9 67 2.5 SW 17 22 9 12 - - 0.0
02/05:30pm 9.5 4.4 2.8 63 2.9 SW 19 26 10 14 - - 0.0
02/05:00pm 10.3 5.4 4.2 66 2.7 SW 19 28 10 15 - - 0.0
02/04:30pm 11.2 5.1 4.7 64 3.0 SW 26 35 14 19 - - 0.0
02/04:00pm 11.6 5.3 5.5 66 2.8 SSW 28 39 15 21 - - 0.0
02/03:30pm 12.8 6.9 5.7 62 3.4 SW 26 37 14 20 - - 0.0
02/03:00pm 11.8 5.8 5.4 65 3.0 SW 26 35 14 19 - - 0.0
02/02:30pm 12.6 7.5 7.7 72 2.4 WSW 24 37 13 20 - - 0.0
02/02:00pm 11.7 5.6 6.8 72 2.4 WSW 28 37 15 20 - - 0.0
02/01:30pm 11.9 7.2 7.8 76 2.0 WSW 22 32 12 17 - - 0.0
02/01:00pm 10.7 7.2 7.0 78 1.8 WSW 15 24 8 13 - - 0.0
02/12:30pm 9.9 5.0 7.0 82 1.4 WSW 22 33 12 18 - - 0.0
02/12:00pm 9.8 5.1 7.7 87 1.0 WSW 22 33 12 18 - - 0.0
02/11:30am 9.5 5.1 6.6 82 1.4 W 19 28 10 15 - - 0.0
02/11:00am 9.7 5.8 5.3 74 2.0 WNW 15 24 8 13 - - 0.0
02/10:30am 9.1 5.1 4.7 74 2.0 NW 15 22 8 12 - - 0.0
02/10:00am 8.1 4.4 4.7 79 1.5 NW 13 20 7 11 - - 0.0
02/09:30am 7.3 3.2 4.1 80 1.4 NW 15 20 8 11 - - 0.0
02/09:00am 6.5 2.7 4.0 84 1.1 NW 13 20 7 11 - - 0.0
02/08:30am 6.2 2.0 4.0 86 0.9 NW 15 20 8 11 - - 0.0
02/08:00am 5.8 2.4 4.0 88 0.8 NW 11 17 6 9 - - 0.0
02/07:30am 5.4 2.3 3.7 89 0.7 NNW 9 13 5 7 - - 0.0
02/07:00am 5.3 1.8 3.6 89 0.7 NNW 11 15 6 8 - - 0.0
02/06:30am 5.5 2.5 4.0 90 0.6 NNW 9 11 5 6 - - 0.0
02/06:00am 5.5 2.5 4.2 91 0.6 NNW 9 13 5 7 - - 0.0
02/05:30am 5.5 2.5 4.0 90 0.6 NW 9 13 5 7 - - 0.0
02/05:00am 5.4 2.4 4.2 92 0.5 NNW 9 13 5 7 - - 0.0
02/04:30am 5.4 2.8 4.4 93 0.4 NNW 7 11 4 6 - - 0.0
02/04:00am 5.3 2.9 4.3 93 0.4 NNW 6 7 3 4 - - 0.0
02/03:30am 5.2 2.6 4.2 93 0.4 NNW 7 9 4 5 - - 0.0
02/03:00am 5.4 2.8 4.2 92 0.5 NW 7 9 4 5 - - 0.0
02/02:30am 5.3 2.3 4.3 93 0.4 N 9 13 5 7 - - 0.0
02/02:00am 5.3 2.7 4.1 92 0.5 NNW 7 7 4 4 - - 0.0
02/01:30am 5.6 3.1 3.9 89 0.7 NNW 6 6 3 3 - - 0.0
02/01:00am 5.8 3.3 4.0 88 0.8 NW 6 7 3 4 - - 0.0
02/12:30am 6.0 3.6 4.2 88 0.8 NNW 6 7 3 4 - - 0.0
02/12:00am 6.3 3.9 4.1 86 0.9 NNW 6 6 3 3 - - 0.0
 
Date/Time
EST
Temp
°C
App
Temp
°C
Dew
Point
Rel
Hum
%
Delta-T
°C
Wind Press
QNH
hPa
Press
MSL
hPa
Rain
since 9 am
mm
Dir
 
Spd
km/h
Gust
km/h
Spd
kts
Gust
kts
01/11:30pm 6.8 4.4 4.3 84 1.1 NNW 6 7 3 4 - - 0.0
01/11:00pm 7.2 5.3 4.7 84 1.1 WNW 4 6 2 3 - - 0.0
01/10:30pm 7.6 5.6 4.4 80 1.4 W 4 4 2 2 - - 0.0
01/10:00pm 8.3 6.4 4.7 78 1.6 W 4 4 2 2 - - 0.0
01/09:30pm 8.3 6.3 4.5 77 1.7 W 4 4 2 2 - - 0.0
01/09:00pm 8.4 6.1 5.0 79 1.5 SSW 6 7 3 4 - - 0.0
01/08:30pm 8.4 6.6 5.5 82 1.3 WSW 4 6 2 3 - - 0.0
01/08:00pm 8.5 6.7 5.6 82 1.3 WSW 4 6 2 3 - - 0.0
01/07:30pm 8.8 7.0 5.4 79 1.5 WSW 4 4 2 2 - - 0.0
01/07:00pm 8.9 7.1 5.3 78 1.6 WSW 4 6 2 3 - - 0.0
01/06:30pm 9.1 7.7 5.3 77 1.7 WSW 2 2 1 1 - - 0.0
01/06:00pm 9.3 7.4 4.9 74 2.0 WSW 4 7 2 4 - - 0.0
01/05:30pm 9.2 7.5 5.8 79 1.6 SW 4 6 2 3 - - 0.0
01/05:00pm 9.3 7.2 5.7 78 1.7 WSW 6 7 3 4 - - 0.0
01/04:30pm 9.5 7.2 5.5 76 1.8 SW 7 9 4 5 - - 0.0
01/04:00pm 9.9 7.7 5.1 72 2.2 WSW 6 9 3 5 - - 0.0
01/03:30pm 10.4 7.9 4.5 67 2.7 WSW 7 11 4 6 - - 0.0
01/03:00pm 10.9 9.4 4.8 66 2.8 WSW 2 4 1 2 - - 0.0
01/02:30pm 10.4 7.9 4.5 67 2.7 WSW 7 9 4 5 - - 0.0

Other Formats:

Comma delimited format used in spreadsheet applications
http://www.bom.gov.au/fwo/IDN60801/IDN60801.95705.axf

JavaScript Object Notation format (JSON) in row-major order
http://www.bom.gov.au/fwo/IDN60801/IDN60801.95705.json